createdAt,value
2022-10-22T00:02:24.492Z,32
2022-10-22T00:04:55.419Z,32
2022-10-22T00:07:29.634Z,29
2022-10-22T00:10:02.105Z,28
2022-10-22T00:12:33.452Z,32
2022-10-22T00:15:07.263Z,28
2022-10-22T00:17:39.234Z,25
2022-10-22T00:20:10.063Z,30
2022-10-22T00:22:43.786Z,30
2022-10-22T00:25:14.886Z,25
2022-10-22T00:27:47.771Z,34
2022-10-22T00:30:20.116Z,32
2022-10-22T00:32:54.127Z,31
2022-10-22T00:35:25.568Z,30
2022-10-22T00:37:56.687Z,32
2022-10-22T00:40:28.423Z,32
2022-10-22T00:43:00.482Z,25
2022-10-22T00:45:31.099Z,28
2022-10-22T00:48:05.289Z,32
2022-10-22T00:50:38.289Z,28
2022-10-22T00:53:11.313Z,28
2022-10-22T00:55:42.907Z,28
2022-10-22T00:58:13.625Z,32
2022-10-22T01:00:43.463Z,30
2022-10-22T01:03:17.002Z,28
2022-10-22T01:05:49.907Z,28
2022-10-22T01:08:21.129Z,26
2022-10-22T01:10:52.061Z,29
2022-10-22T01:13:24.519Z,28
2022-10-22T01:15:55.897Z,28
2022-10-22T01:18:28.983Z,28
2022-10-22T01:21:01.956Z,28
2022-10-22T01:23:33.007Z,28
2022-10-22T01:26:04.654Z,28
2022-10-22T01:28:35.500Z,29
2022-10-22T01:31:08.283Z,30
2022-10-22T01:33:41.393Z,30
2022-10-22T01:36:13.909Z,29
2022-10-22T01:38:48.835Z,24
2022-10-22T01:41:22.619Z,30
2022-10-22T01:43:55.031Z,31
2022-10-22T01:46:26.219Z,28
2022-10-22T01:48:57.172Z,28
2022-10-22T01:51:28.627Z,28
2022-10-22T01:54:01.759Z,32
2022-10-22T01:56:32.779Z,33
2022-10-22T01:59:05.437Z,31
2022-10-22T02:01:36.071Z,29
2022-10-22T02:04:06.505Z,24
2022-10-22T02:06:38.338Z,28
2022-10-22T02:09:09.821Z,28
2022-10-22T02:11:41.482Z,28
2022-10-22T02:14:12.982Z,29
2022-10-22T02:16:43.240Z,31
2022-10-22T02:19:14.775Z,28
2022-10-22T02:21:46.826Z,28
2022-10-22T02:24:17.747Z,32
2022-10-22T02:26:48.839Z,32
2022-10-22T02:29:18.421Z,32
2022-10-22T02:31:49.405Z,32
2022-10-22T02:34:21.136Z,31
2022-10-22T02:36:53.537Z,31
2022-10-22T02:39:25.601Z,31
2022-10-22T02:41:56.000Z,32
2022-10-22T02:44:26.937Z,28
2022-10-22T02:46:59.142Z,35
2022-10-22T02:49:29.580Z,32
2022-10-22T02:52:02.129Z,32
2022-10-22T02:54:33.002Z,30
2022-10-22T02:57:04.925Z,28
2022-10-22T02:59:36.740Z,32
2022-10-22T03:02:07.988Z,25
2022-10-22T03:04:39.538Z,32
2022-10-22T03:07:10.534Z,29
2022-10-22T03:09:42.813Z,33
2022-10-22T03:12:15.331Z,32
2022-10-22T03:14:46.687Z,32
2022-10-22T03:17:19.130Z,28
2022-10-22T03:19:50.840Z,32
2022-10-22T03:22:21.766Z,32
2022-10-22T03:24:52.725Z,32
2022-10-22T03:27:23.291Z,31
2022-10-22T03:29:54.023Z,28
2022-10-22T03:32:25.266Z,30
2022-10-22T03:34:57.521Z,32
2022-10-22T03:37:28.356Z,33
2022-10-22T03:40:01.767Z,32
2022-10-22T03:42:33.221Z,32
2022-10-22T03:45:03.139Z,37
2022-10-22T03:47:35.385Z,32
2022-10-22T03:50:06.350Z,31
2022-10-22T03:52:37.625Z,33
2022-10-22T03:55:10.175Z,36
2022-10-22T03:57:42.831Z,32
2022-10-22T04:00:13.639Z,28
2022-10-22T04:02:45.041Z,32
2022-10-22T04:05:16.230Z,36
2022-10-22T04:07:48.039Z,34
2022-10-22T04:10:21.074Z,32
2022-10-22T04:12:55.491Z,31
2022-10-22T04:15:29.153Z,35
2022-10-22T04:17:59.989Z,36
2022-10-22T04:20:31.049Z,36
2022-10-22T04:23:03.256Z,40
2022-10-22T04:25:33.936Z,35
2022-10-22T04:28:06.979Z,35
2022-10-22T04:30:41.785Z,32
2022-10-22T04:33:12.238Z,36
2022-10-22T04:35:44.796Z,32
2022-10-22T04:38:16.578Z,32
2022-10-22T04:40:48.087Z,44
2022-10-22T04:43:17.854Z,45
2022-10-22T04:45:50.203Z,38
2022-10-22T04:48:21.369Z,35
2022-10-22T04:50:52.370Z,39
2022-10-22T04:53:23.503Z,38
2022-10-22T04:55:55.621Z,39
2022-10-22T04:58:25.893Z,40
2022-10-22T05:00:57.242Z,40
2022-10-22T05:03:28.381Z,36
2022-10-22T05:06:00.238Z,40
2022-10-22T05:08:32.261Z,37
2022-10-22T05:11:03.474Z,36
2022-10-22T05:13:34.575Z,36
2022-10-22T05:16:03.437Z,36
2022-10-22T05:18:34.033Z,32
2022-10-22T05:21:06.073Z,32
2022-10-22T05:23:37.229Z,39
2022-10-22T05:26:08.619Z,36
2022-10-22T05:28:39.511Z,36
2022-10-22T05:31:10.447Z,36
2022-10-22T05:33:44.513Z,31
2022-10-22T05:36:16.427Z,36
2022-10-22T05:38:47.073Z,32
2022-10-22T05:41:18.661Z,34
2022-10-22T05:43:49.422Z,43
2022-10-22T05:46:22.660Z,39
2022-10-22T05:48:51.050Z,36
2022-10-22T05:51:25.830Z,32
2022-10-22T05:53:57.195Z,32
2022-10-22T05:56:30.867Z,36
2022-10-22T05:59:05.874Z,36
2022-10-22T06:01:39.567Z,36
2022-10-22T06:04:14.102Z,36
2022-10-22T06:06:44.331Z,40
2022-10-22T06:09:14.948Z,37
2022-10-22T06:11:46.151Z,37
2022-10-22T06:14:17.637Z,40
2022-10-22T06:16:48.497Z,40
2022-10-22T06:19:20.265Z,35
2022-10-22T06:21:50.638Z,36
2022-10-22T06:24:21.387Z,40
2022-10-22T06:26:52.339Z,40
2022-10-22T06:29:24.258Z,37
2022-10-22T06:31:55.019Z,44
2022-10-22T06:34:25.351Z,48
2022-10-22T06:36:56.030Z,40
2022-10-22T06:39:26.898Z,40
2022-10-22T06:41:57.620Z,40
2022-10-22T06:44:30.663Z,40
2022-10-22T06:47:03.079Z,42
2022-10-22T06:49:33.862Z,40
2022-10-22T06:52:04.485Z,36
2022-10-22T06:54:39.091Z,37
2022-10-22T06:57:09.288Z,36
2022-10-22T06:59:40.017Z,37
2022-10-22T07:02:10.789Z,40
2022-10-22T07:04:41.383Z,36
2022-10-22T07:07:12.268Z,36
2022-10-22T07:09:43.747Z,32
2022-10-22T07:12:13.688Z,35
2022-10-22T07:14:44.450Z,36
2022-10-22T07:17:15.221Z,36
2022-10-22T07:19:48.384Z,32
2022-10-22T07:22:16.881Z,36
2022-10-22T07:24:47.658Z,32
2022-10-22T07:27:18.264Z,35
2022-10-22T07:29:50.246Z,32
2022-10-22T07:32:23.959Z,36
2022-10-22T07:34:54.376Z,32
2022-10-22T07:37:28.921Z,33
2022-10-22T07:40:02.832Z,34
2022-10-22T07:42:34.765Z,33
2022-10-22T07:45:05.699Z,32
2022-10-22T07:47:37.571Z,36
2022-10-22T07:50:08.222Z,35
2022-10-22T07:52:39.731Z,32
2022-10-22T07:55:11.065Z,31
2022-10-22T07:57:42.915Z,32
2022-10-22T08:00:14.127Z,32
2022-10-22T08:02:44.918Z,36
2022-10-22T08:05:17.541Z,32
2022-10-22T08:07:48.345Z,34
2022-10-22T08:10:19.434Z,38
2022-10-22T08:12:50.761Z,41
2022-10-22T08:15:21.987Z,44
2022-10-22T08:17:53.517Z,44
2022-10-22T08:20:28.392Z,34
2022-10-22T08:22:59.287Z,32
2022-10-22T08:25:30.200Z,30
2022-10-22T08:28:02.833Z,35
2022-10-22T08:30:34.321Z,36
2022-10-22T08:33:05.682Z,32
2022-10-22T08:35:36.525Z,28
2022-10-22T08:38:07.800Z,32
2022-10-22T08:40:38.896Z,32
2022-10-22T08:43:10.268Z,33
2022-10-22T08:45:41.558Z,30
2022-10-22T08:48:14.053Z,32
2022-10-22T08:50:44.909Z,32
2022-10-22T08:53:15.943Z,28
2022-10-22T08:55:47.310Z,32
2022-10-22T08:58:22.758Z,36
2022-10-22T09:00:54.707Z,35
2022-10-22T09:03:26.053Z,36
2022-10-22T09:05:57.272Z,33
2022-10-22T09:08:29.550Z,32
2022-10-22T09:11:00.111Z,32
2022-10-22T09:13:31.131Z,33
2022-10-22T09:16:01.632Z,35
2022-10-22T09:18:32.236Z,32
2022-10-22T09:21:04.379Z,34
2022-10-22T09:23:36.018Z,28
2022-10-22T09:26:07.044Z,33
2022-10-22T09:28:36.595Z,29
2022-10-22T09:31:07.163Z,28
2022-10-22T09:33:37.720Z,30
2022-10-22T09:36:08.629Z,32
2022-10-22T09:38:39.026Z,28
2022-10-22T09:41:10.490Z,32
2022-10-22T09:43:42.166Z,28
2022-10-22T09:46:14.946Z,28
2022-10-22T09:48:49.173Z,26
2022-10-22T09:51:20.247Z,28
2022-10-22T09:53:53.054Z,29
2022-10-22T09:56:24.219Z,28
2022-10-22T09:58:56.724Z,28
2022-10-22T10:01:27.440Z,28
2022-10-22T10:03:58.168Z,28
2022-10-22T10:06:32.362Z,24
2022-10-22T10:09:02.915Z,28
2022-10-22T10:11:33.158Z,24
2022-10-22T10:14:03.663Z,28
2022-10-22T10:16:34.301Z,26
2022-10-22T10:19:06.238Z,28
2022-10-22T10:21:37.583Z,27
2022-10-22T10:24:08.537Z,27
2022-10-22T10:26:39.018Z,31
2022-10-22T10:29:09.407Z,32
2022-10-22T10:31:40.336Z,32
2022-10-22T10:34:09.594Z,28
2022-10-22T10:36:40.325Z,28
2022-10-22T10:39:11.103Z,29
2022-10-22T10:41:42.229Z,29
2022-10-22T10:44:13.208Z,36
2022-10-22T10:46:44.083Z,40
2022-10-22T10:49:14.921Z,36
2022-10-22T10:51:45.726Z,36
2022-10-22T10:54:16.591Z,36
2022-10-22T10:56:47.244Z,54
2022-10-22T10:59:18.545Z,82
2022-10-22T11:01:49.119Z,43
2022-10-22T11:04:19.827Z,32
2022-10-22T11:06:50.769Z,31
2022-10-22T11:09:21.709Z,32
2022-10-22T11:11:53.803Z,36
2022-10-22T11:14:26.470Z,32
2022-10-22T11:16:56.039Z,33
2022-10-22T11:19:46.486Z,36
2022-10-22T11:21:57.406Z,36
2022-10-22T11:24:28.438Z,36
2022-10-22T11:26:59.416Z,28
2022-10-22T11:29:32.047Z,33
2022-10-22T11:32:00.775Z,28
2022-10-22T11:34:34.236Z,24
2022-10-22T11:37:05.273Z,28
2022-10-22T11:39:36.092Z,29
2022-10-22T11:42:07.074Z,28
2022-10-22T11:44:37.540Z,24
2022-10-22T11:47:07.698Z,30
2022-10-22T11:49:38.329Z,32
2022-10-22T11:52:09.321Z,24
2022-10-22T11:54:40.321Z,28
2022-10-22T11:57:10.990Z,27
2022-10-22T11:59:41.508Z,32
2022-10-22T12:02:14.490Z,33
2022-10-22T12:04:45.115Z,27
2022-10-22T12:07:16.523Z,29
2022-10-22T12:09:47.418Z,27
2022-10-22T12:12:18.418Z,28
2022-10-22T12:14:49.643Z,28
2022-10-22T12:17:18.626Z,28
2022-10-22T12:19:48.918Z,28
2022-10-22T12:22:19.198Z,39
2022-10-22T12:24:50.028Z,32
2022-10-22T12:27:22.313Z,36
2022-10-22T12:29:51.646Z,28
2022-10-22T12:32:22.842Z,32
2022-10-22T12:34:53.832Z,48
2022-10-22T12:37:24.643Z,44
2022-10-22T12:39:55.368Z,43
2022-10-22T12:42:26.083Z,30
2022-10-22T12:44:57.144Z,33
2022-10-22T12:47:28.765Z,29
2022-10-22T12:49:59.475Z,97
2022-10-22T12:52:31.533Z,96
2022-10-22T12:55:02.951Z,28
2022-10-22T12:57:33.662Z,27
2022-10-22T13:00:04.926Z,29
2022-10-22T13:02:35.632Z,24
2022-10-22T13:05:06.368Z,25
2022-10-22T13:07:38.126Z,28
2022-10-22T13:10:08.761Z,26
2022-10-22T13:12:39.982Z,36
2022-10-22T13:15:10.718Z,28
2022-10-22T13:17:41.852Z,39
2022-10-22T13:20:12.242Z,37
2022-10-22T13:22:43.440Z,40
2022-10-22T13:25:15.249Z,32
2022-10-22T13:27:46.060Z,25
2022-10-22T13:30:16.736Z,31
2022-10-22T13:32:47.116Z,32
2022-10-22T13:35:17.972Z,40
2022-10-22T13:37:49.874Z,35
2022-10-22T13:40:24.198Z,42
2022-10-22T13:42:56.028Z,39
2022-10-22T13:45:26.752Z,40
2022-10-22T13:47:58.788Z,35
2022-10-22T13:50:29.804Z,28
2022-10-22T13:53:02.654Z,34
2022-10-22T13:55:34.094Z,36
2022-10-22T13:58:04.715Z,32
2022-10-22T14:00:35.901Z,38
2022-10-22T14:03:08.059Z,40
2022-10-22T14:05:38.965Z,33
2022-10-22T14:08:10.030Z,32
2022-10-22T14:10:41.423Z,36
2022-10-22T14:13:14.577Z,38
2022-10-22T14:15:46.213Z,36
2022-10-22T14:18:17.105Z,36
2022-10-22T14:20:47.902Z,31
2022-10-22T14:23:19.148Z,35
2022-10-22T14:25:49.469Z,39
2022-10-22T14:28:20.360Z,34
2022-10-22T14:30:52.428Z,32
2022-10-22T14:33:25.853Z,40
2022-10-22T14:35:53.769Z,42
2022-10-22T14:38:24.478Z,36
2022-10-22T14:40:55.147Z,37
2022-10-22T14:43:25.868Z,45
2022-10-22T14:45:56.731Z,41
2022-10-22T14:48:26.835Z,42
2022-10-22T14:50:58.340Z,36
2022-10-22T14:53:29.039Z,40
2022-10-22T14:56:00.121Z,37
2022-10-22T14:58:31.502Z,44
2022-10-22T15:01:03.083Z,36
2022-10-22T15:03:33.891Z,40
2022-10-22T15:06:06.220Z,44
2022-10-22T15:08:37.389Z,40
2022-10-22T15:11:06.616Z,42
2022-10-22T15:13:37.875Z,37
2022-10-22T15:16:08.881Z,36
2022-10-22T15:18:39.750Z,36
2022-10-22T15:21:10.967Z,36
2022-10-22T15:23:41.809Z,36
2022-10-22T15:26:14.830Z,36
2022-10-22T15:28:45.945Z,40
2022-10-22T15:31:17.262Z,40
2022-10-22T15:33:46.152Z,36
2022-10-22T15:36:17.024Z,40
2022-10-22T15:38:47.749Z,39
2022-10-22T15:41:19.332Z,41
2022-10-22T15:43:50.574Z,37
2022-10-22T15:46:21.447Z,40
2022-10-22T15:48:52.460Z,37
2022-10-22T15:51:23.674Z,44
2022-10-22T15:53:54.557Z,40
2022-10-22T15:56:26.105Z,44
2022-10-22T15:58:59.561Z,38
2022-10-22T16:01:30.637Z,36
2022-10-22T16:04:02.249Z,39
2022-10-22T16:06:33.330Z,40
2022-10-22T16:09:04.810Z,36
2022-10-22T16:11:36.312Z,40
2022-10-22T16:14:07.697Z,37
2022-10-22T16:16:38.861Z,40
2022-10-22T16:19:10.361Z,40
2022-10-22T16:21:41.558Z,36
2022-10-22T16:24:12.979Z,40
2022-10-22T16:26:43.357Z,40
2022-10-22T16:29:14.510Z,44
2022-10-22T16:31:45.821Z,41
2022-10-22T16:34:17.113Z,40
2022-10-22T16:36:48.377Z,45
2022-10-22T16:39:20.065Z,43
2022-10-22T16:41:51.127Z,40
2022-10-22T16:44:22.304Z,40
2022-10-22T16:46:53.976Z,48
2022-10-22T16:49:23.711Z,48
2022-10-22T16:51:55.077Z,44
2022-10-22T16:54:26.454Z,44
2022-10-22T16:56:58.224Z,49
2022-10-22T16:59:29.364Z,51
2022-10-22T17:01:59.116Z,54
2022-10-22T17:04:30.166Z,66
2022-10-22T17:07:02.434Z,68
2022-10-22T17:09:33.705Z,64
2022-10-22T17:12:05.152Z,60
2022-10-22T17:14:36.885Z,68
2022-10-22T17:17:08.172Z,71
2022-10-22T17:19:39.784Z,61
2022-10-22T17:22:13.703Z,61
2022-10-22T17:24:42.342Z,58
2022-10-22T17:27:13.568Z,60
2022-10-22T17:29:44.960Z,54
2022-10-22T17:32:15.978Z,55
2022-10-22T17:34:47.109Z,52
2022-10-22T17:37:18.754Z,60
2022-10-22T17:39:53.281Z,56
2022-10-22T17:42:32.044Z,82
2022-10-22T17:45:09.477Z,108
2022-10-22T17:47:39.148Z,115
2022-10-22T17:50:10.140Z,80
2022-10-22T17:52:41.675Z,82
2022-10-22T17:55:14.345Z,61
2022-10-22T17:57:45.313Z,64
2022-10-22T18:02:50.411Z,66
2022-10-22T18:05:22.512Z,59
2022-10-22T18:07:53.639Z,56
2022-10-22T18:10:23.382Z,58
2022-10-22T18:12:54.847Z,62
2022-10-22T18:15:25.802Z,63
2022-10-22T18:18:00.317Z,56
2022-10-22T18:20:31.390Z,53
2022-10-22T18:23:02.430Z,64
2022-10-22T18:28:05.099Z,79
2022-10-22T18:30:36.248Z,81
2022-10-22T18:33:08.328Z,72
2022-10-22T18:35:39.483Z,72
2022-10-22T18:38:10.758Z,69
2022-10-22T18:40:42.216Z,68
2022-10-22T18:43:14.400Z,72
2022-10-22T18:45:43.880Z,71
2022-10-22T18:48:16.347Z,68
2022-10-22T18:50:48.665Z,68
2022-10-22T18:53:19.756Z,76
2022-10-22T18:55:50.848Z,68
2022-10-22T18:58:22.450Z,76
2022-10-22T19:00:53.934Z,79
2022-10-22T19:03:23.652Z,76
2022-10-22T19:05:57.429Z,74
2022-10-22T19:08:28.044Z,76
2022-10-22T19:10:59.262Z,72
2022-10-22T19:13:31.530Z,77
2022-10-22T19:16:03.057Z,75
2022-10-22T19:18:34.631Z,82
2022-10-22T19:21:06.113Z,85
2022-10-22T19:23:37.599Z,83
2022-10-22T19:26:11.616Z,88
2022-10-22T19:28:44.300Z,88
2022-10-22T19:31:17.035Z,82
2022-10-22T19:33:50.375Z,74
2022-10-22T19:36:21.472Z,73
2022-10-22T19:38:54.107Z,68
2022-10-22T19:41:25.647Z,57
2022-10-22T19:43:57.288Z,47
2022-10-22T19:46:29.471Z,47
2022-10-22T19:49:00.680Z,44
2022-10-22T19:51:31.915Z,44
2022-10-22T19:54:03.462Z,40
2022-10-22T19:56:34.975Z,36
2022-10-22T19:59:06.466Z,32
2022-10-22T20:01:37.690Z,28
2022-10-22T20:04:07.660Z,28
2022-10-22T20:06:38.716Z,28
2022-10-22T20:09:08.450Z,22
2022-10-22T20:11:37.732Z,25
2022-10-22T20:14:09.017Z,20
2022-10-22T20:16:41.598Z,16
2022-10-22T20:19:13.345Z,16
2022-10-22T20:21:44.606Z,12
2022-10-22T20:24:15.842Z,12
2022-10-22T20:26:45.317Z,8
2022-10-22T20:29:16.422Z,11
2022-10-22T20:31:47.670Z,8
2022-10-22T20:34:20.406Z,8
2022-10-22T20:36:51.479Z,8
2022-10-22T20:39:22.735Z,9
2022-10-22T20:41:54.185Z,12
2022-10-22T20:44:25.979Z,4
2022-10-22T20:46:59.477Z,4
2022-10-22T20:49:30.398Z,8
2022-10-22T20:52:02.417Z,8
2022-10-22T20:54:33.826Z,8
2022-10-22T20:57:06.056Z,8
2022-10-22T20:59:38.575Z,8
2022-10-22T21:02:10.917Z,4
2022-10-22T21:04:45.645Z,8
2022-10-22T21:07:16.051Z,20
2022-10-22T21:09:47.688Z,10
2022-10-22T21:12:18.890Z,11
2022-10-22T21:14:51.924Z,8
2022-10-22T21:17:21.835Z,8
2022-10-22T21:19:53.230Z,6
2022-10-22T21:22:24.300Z,8
2022-10-22T21:24:54.124Z,8
2022-10-22T21:27:25.439Z,6
2022-10-22T21:29:54.889Z,12
2022-10-22T21:32:26.191Z,8
2022-10-22T21:34:58.633Z,8
2022-10-22T21:37:28.321Z,8
2022-10-22T21:40:04.009Z,4
2022-10-22T21:42:35.030Z,8
2022-10-22T21:45:10.410Z,4
2022-10-22T21:47:38.242Z,8
2022-10-22T21:50:09.668Z,6
2022-10-22T21:52:40.564Z,8
2022-10-22T21:55:11.819Z,8
2022-10-22T21:57:43.441Z,9
2022-10-22T22:00:14.688Z,8
2022-10-22T22:02:45.544Z,8
2022-10-22T22:05:15.899Z,8
2022-10-22T22:07:46.615Z,16
2022-10-22T22:10:18.722Z,8
2022-10-22T22:12:54.131Z,16
2022-10-22T22:15:24.843Z,14
2022-10-22T22:17:55.432Z,15
2022-10-22T22:20:26.748Z,8
2022-10-22T22:22:59.726Z,12
2022-10-22T22:25:30.870Z,9
2022-10-22T22:28:02.114Z,11
2022-10-22T22:30:31.459Z,10
2022-10-22T22:33:02.507Z,12
2022-10-22T22:35:32.874Z,9
2022-10-22T22:38:03.363Z,11
2022-10-22T22:40:34.391Z,8
2022-10-22T22:43:04.856Z,8
2022-10-22T22:45:35.807Z,8
2022-10-22T22:48:06.913Z,8
2022-10-22T22:50:37.265Z,8
2022-10-22T22:53:08.281Z,9
2022-10-22T22:55:38.860Z,8
2022-10-22T22:58:09.916Z,9
2022-10-22T23:03:11.821Z,8
2022-10-22T23:05:43.163Z,8
2022-10-22T23:08:14.112Z,8
2022-10-22T23:10:45.079Z,8
2022-10-22T23:13:15.813Z,12
2022-10-22T23:15:46.546Z,12
2022-10-22T23:18:19.999Z,8
2022-10-22T23:20:51.847Z,10
2022-10-22T23:23:22.966Z,8
2022-10-22T23:25:52.664Z,14
2022-10-22T23:28:23.186Z,12
2022-10-22T23:30:55.210Z,12
2022-10-22T23:33:26.159Z,9
2022-10-22T23:35:56.962Z,12
2022-10-22T23:38:28.174Z,8
2022-10-22T23:40:58.942Z,12
2022-10-22T23:43:29.454Z,13
2022-10-22T23:46:00.103Z,12
2022-10-22T23:48:29.498Z,12
2022-10-22T23:51:01.508Z,12
2022-10-22T23:53:32.503Z,12
2022-10-22T23:56:04.304Z,12
2022-10-22T23:58:35.008Z,12
